Terminal Aerodrome Forecast
Issued by NWS

Home | Current Version | Previous Version | Graphics & Text | Print | Product List | Glossary On
Versions: 1 2 3 4 5 6 7 8 9 10 11 12 13 14 15 16
393
FTUS43 KBIS 142330
TAFJMS
TAF
KJMS 142330Z 1500/1524 28009KT P6SM BKN150
     FM150500 32010KT P6SM -SN OVC025
     FM150800 34014KT 3SM -SN OVC015
     FM151100 35016KT 3SM -SN BLSN OVC016
      TEMPO 1511/1515 1 1/2SM -SN BLSN OVC012
     FM151500 35018G26KT 3SM -SN BLSN OVC018
     FM152100 33016KT P6SM SCT018 BKN100=

USA.gov is the U.S. government's official web portal to all federal, state and local government web resources and services.